Time;durP1;ratioP1;P1;durP2;ratioP2;P2;SDS_P1;SDS_P2;PMS_P1;PMS_P2;Temp;Humidity;BMP_temperature;BMP_pressure;BME280_temperature;BME280_humidity;BME280_pressure;Samples;Min_cycle;Max_cycle;Signal;HPM_P1;HPM_P2
2024/04/20 00:01:38;;;;;;;1.07;0.90;;;;;;;;;;5370151;26;20032;-77
2024/04/20 00:06:59;;;;;;;2.87;1.23;;;;;;;;;;5349545;26;21631;-78
2024/04/20 00:09:36;;;;;;;2.20;0.70;;;;;;;;;;5396802;26;20021;-78
2024/04/20 00:12:13;;;;;;;2.20;0.70;;;;;;;;;;5368117;26;20005;-78
2024/04/20 00:14:42;;;;;;;4.00;0.80;;;;;;;;;;5368911;26;19985;-78
2024/04/20 00:17:15;;;;;;;3.23;0.83;;;;;;;;;;5372740;26;20008;-78
2024/04/20 00:20:06;;;;;;;1.73;1.00;;;;;;;;;;5370695;26;19992;-77
2024/04/20 00:22:50;;;;;;;2.83;0.60;;;;;;;;;;5371581;26;20004;-78
2024/04/20 00:25:19;;;;;;;1.37;1.00;;;;;;;;;;5371374;26;20000;-77
2024/04/20 00:28:13;;;;;;;;;;;;;;;;;;;;;
2024/04/20 00:31:04;;;;;;;3.57;0.57;;;;;;;;;;5369546;26;20001;-77
2024/04/20 00:33:32;;;;;;;2.43;0.60;;;;;;;;;;5368448;26;20012;-77
2024/04/20 00:36:08;;;;;;;1.50;0.90;;;;;;;;;;5368823;26;19985;-77
2024/04/20 00:41:24;;;;;;;2.93;1.10;;;;;;;;;;5358555;26;19997;-77
2024/04/20 00:43:51;;;;;;;4.27;1.20;;;;;;;;;;5376737;21;20008;-77
2024/04/20 00:46:19;;;;;;;3.50;1.03;;;;;;;;;;5342122;26;20062;-77
2024/04/20 00:49:02;;;;;;;1.87;1.10;;;;;;;;;;5340428;26;19993;-77
2024/04/20 00:51:31;;;;;;;5.28;0.90;;;;;;;;;;5339671;26;20074;-77
2024/04/20 00:54:02;;;;;;;6.20;0.87;;;;;;;;;;5338565;26;20004;-77
2024/04/20 00:56:34;;;;;;;4.30;0.90;;;;;;;;;;5356364;26;19993;-77
2024/04/20 00:59:02;;;;;;;1.45;1.00;;;;;;;;;;5341777;26;20032;-77
2024/04/20 01:01:33;;;;;;;2.17;1.07;;;;;;;;;;5341037;26;19986;-77
2024/04/20 01:04:05;;;;;;;4.33;0.87;;;;;;;;;;5376393;26;19996;-77
2024/04/20 01:06:43;;;;;;;2.92;1.10;;;;;;;;;;5372779;26;20005;-77
2024/04/20 01:09:09;;;;;;;5.50;1.10;;;;;;;;;;5368011;26;20001;-77
2024/04/20 01:11:37;;;;;;;2.20;1.13;;;;;;;;;;5343048;26;20004;-77
2024/04/20 01:14:10;;;;;;;5.27;1.20;;;;;;;;;;5368308;26;19989;-77
2024/04/20 01:16:43;;;;;;;5.33;1.07;;;;;;;;;;5338045;26;20001;-77
2024/04/20 01:19:18;;;;;;;5.70;0.80;;;;;;;;;;5339978;26;20004;-77
2024/04/20 01:21:44;;;;;;;2.33;1.20;;;;;;;;;;5357382;26;20001;-77
2024/04/20 01:24:19;;;;;;;3.33;1.10;;;;;;;;;;5374054;26;20005;-77
2024/04/20 01:26:48;;;;;;;1.47;1.10;;;;;;;;;;5342955;26;20000;-77
2024/04/20 01:29:14;;;;;;;3.70;1.40;;;;;;;;;;5339705;26;19994;-77
2024/04/20 01:31:45;;;;;;;2.33;0.90;;;;;;;;;;5365344;26;20017;-77
2024/04/20 01:34:21;;;;;;;;;;;;;;;;;;;;;
2024/04/20 01:36:47;;;;;;;2.87;1.33;;;;;;;;;;5339600;26;20012;-77
2024/04/20 01:39:13;;;;;;;2.10;1.10;;;;;;;;;;5361374;26;20000;-77
2024/04/20 01:41:48;;;;;;;2.57;0.93;;;;;;;;;;5341074;26;19989;-77
2024/04/20 01:44:21;;;;;;;5.77;1.30;;;;;;;;;;5337643;26;20030;-77
2024/04/20 01:46:57;;;;;;;3.83;1.33;;;;;;;;;;5367256;26;20085;-76
2024/04/20 01:49:26;;;;;;;4.53;1.20;;;;;;;;;;5361338;26;19989;-77
2024/04/20 01:52:03;;;;;;;3.50;1.13;;;;;;;;;;5367579;26;20001;-77
2024/04/20 01:54:35;;;;;;;6.37;1.87;;;;;;;;;;5357211;26;19993;-77
2024/04/20 01:57:23;;;;;;;4.70;1.42;;;;;;;;;;5369728;26;20021;-77
2024/04/20 01:59:49;;;;;;;5.93;1.20;;;;;;;;;;5360911;26;20036;-77
2024/04/20 02:02:17;;;;;;;3.93;1.33;;;;;;;;;;5341830;26;20017;-78
2024/04/20 02:04:57;;;;;;;8.07;1.80;;;;;;;;;;5339271;26;20006;-77
2024/04/20 02:07:32;;;;;;;3.93;1.30;;;;;;;;;;5337506;26;20008;-77
2024/04/20 02:10:08;;;;;;;4.50;1.40;;;;;;;;;;5338268;26;19993;-77
2024/04/20 02:12:36;;;;;;;2.63;1.43;;;;;;;;;;5356218;26;19989;-77
2024/04/20 02:15:05;;;;;;;5.10;1.30;;;;;;;;;;5363489;26;20001;-77
2024/04/20 02:17:34;;;;;;;4.43;1.30;;;;;;;;;;5341852;26;20001;-77
2024/04/20 02:20:07;;;;;;;3.97;1.30;;;;;;;;;;5370226;26;20012;-77
2024/04/20 02:22:42;;;;;;;3.63;1.20;;;;;;;;;;5353882;26;20012;-77
2024/04/20 02:25:11;;;;;;;7.10;1.53;;;;;;;;;;5340166;26;19997;-77
2024/04/20 02:27:37;;;;;;;4.03;1.10;;;;;;;;;;5372564;26;20076;-77
2024/04/20 02:30:05;;;;;;;3.80;1.10;;;;;;;;;;5342849;26;20000;-77
2024/04/20 02:32:47;;;;;;;;;;;;;;;;;;;;;
2024/04/20 02:35:13;;;;;;;2.87;1.40;;;;;;;;;;5340458;26;20004;-77
2024/04/20 02:37:42;;;;;;;9.47;1.40;;;;;;;;;;5344405;26;19994;-77
2024/04/20 02:40:13;;;;;;;4.97;1.50;;;;;;;;;;5344122;26;19992;-77
2024/04/20 02:42:42;;;;;;;2.72;1.42;;;;;;;;;;5343703;26;19989;-77
2024/04/20 02:45:25;;;;;;;6.73;1.50;;;;;;;;;;5360749;26;20001;-77
2024/04/20 02:47:59;;;;;;;5.37;1.07;;;;;;;;;;5366385;26;20006;-77
2024/04/20 02:50:27;;;;;;;3.33;1.47;;;;;;;;;;5372725;26;20018;-77
2024/04/20 02:52:53;;;;;;;4.57;1.30;;;;;;;;;;5372032;26;20079;-77
2024/04/20 02:55:32;;;;;;;3.13;1.70;;;;;;;;;;5359042;26;20009;-77
2024/04/20 02:58:03;;;;;;;4.57;1.27;;;;;;;;;;5337668;26;19997;-77
2024/04/20 03:00:29;;;;;;;3.03;1.23;;;;;;;;;;5341209;26;20009;-77
2024/04/20 03:03:00;;;;;;;1.77;1.07;;;;;;;;;;5363278;26;20003;-76
2024/04/20 03:05:31;;;;;;;2.77;1.20;;;;;;;;;;5340887;26;19989;-76
2024/04/20 03:07:57;;;;;;;3.23;1.90;;;;;;;;;;5372380;26;20001;-77
2024/04/20 03:10:27;;;;;;;1.97;1.20;;;;;;;;;;5369354;26;19997;-77
2024/04/20 03:13:01;;;;;;;3.27;1.07;;;;;;;;;;5376375;26;19993;-76
2024/04/20 03:15:36;;;;;;;5.17;1.27;;;;;;;;;;5334860;26;20029;-76
2024/04/20 03:18:02;;;;;;;2.00;1.00;;;;;;;;;;5341929;26;19989;-77
2024/04/20 03:20:29;;;;;;;3.00;1.03;;;;;;;;;;5342120;26;20006;-76
2024/04/20 03:22:57;;;;;;;5.60;1.23;;;;;;;;;;5349563;26;20012;-76
2024/04/20 03:25:28;;;;;;;1.50;1.07;;;;;;;;;;5341491;26;19994;-76
2024/04/20 03:27:59;;;;;;;1.90;0.90;;;;;;;;;;5348495;26;19997;-76
2024/04/20 03:30:28;;;;;;;5.10;1.17;;;;;;;;;;5347538;26;20001;-76
2024/04/20 03:32:54;;;;;;;3.70;1.47;;;;;;;;;;5371955;26;19988;-76
2024/04/20 03:35:23;;;;;;;2.30;1.00;;;;;;;;;;5345968;26;20053;-76
2024/04/20 03:37:51;;;;;;;2.17;1.03;;;;;;;;;;5343230;26;20013;-76
2024/04/20 03:40:19;;;;;;;3.07;1.73;;;;;;;;;;5338697;26;20006;-76
2024/04/20 03:42:48;;;;;;;3.70;1.40;;;;;;;;;;5372586;26;19994;-76
2024/04/20 03:45:17;;;;;;;1.90;0.80;;;;;;;;;;5338640;26;20004;-77
2024/04/20 03:47:55;;;;;;;;;;;;;;;;;;;;;
2024/04/20 03:50:26;;;;;;;2.50;1.13;;;;;;;;;;5347088;26;20016;-77
2024/04/20 03:52:52;;;;;;;1.73;0.93;;;;;;;;;;5342022;26;19989;-76
2024/04/20 03:55:23;;;;;;;3.17;1.33;;;;;;;;;;5345478;26;20009;-76
2024/04/20 03:57:51;;;;;;;2.43;1.13;;;;;;;;;;5343865;26;19990;-76
2024/04/20 04:00:23;;;;;;;1.93;1.30;;;;;;;;;;5344627;26;19985;-76
2024/04/20 04:03:00;;;;;;;3.53;1.15;;;;;;;;;;5346052;26;19992;-76
2024/04/20 04:05:28;;;;;;;3.50;1.20;;;;;;;;;;5341037;26;20010;-76
2024/04/20 04:07:54;;;;;;;2.17;1.07;;;;;;;;;;5345244;26;19993;-76
2024/04/20 04:10:43;;;;;;;1.77;0.97;;;;;;;;;;5345476;26;19997;-76
2024/04/20 04:13:14;;;;;;;3.50;1.20;;;;;;;;;;5344519;26;20051;-76
2024/04/20 04:15:57;;;;;;;1.40;1.00;;;;;;;;;;5362049;26;20006;-76
2024/04/20 04:18:26;;;;;;;2.00;1.00;;;;;;;;;;5347241;26;20005;-76
2024/04/20 04:20:52;;;;;;;4.10;1.40;;;;;;;;;;5343782;26;20039;-76
2024/04/20 04:23:18;;;;;;;1.70;1.10;;;;;;;;;;5366608;26;20034;-76
2024/04/20 04:26:00;;;;;;;;;;;;;;;;;;;;;
2024/04/20 04:28:33;;;;;;;3.83;1.20;;;;;;;;;;5347626;26;19986;-76
2024/04/20 04:31:02;;;;;;;5.47;1.23;;;;;;;;;;5340436;26;20005;-76
2024/04/20 04:33:31;;;;;;;4.13;1.20;;;;;;;;;;5342255;26;20012;-76
2024/04/20 04:36:03;;;;;;;1.93;1.13;;;;;;;;;;5339952;26;21419;-76
2024/04/20 04:38:31;;;;;;;7.22;1.33;;;;;;;;;;5361952;26;20184;-76
2024/04/20 04:41:05;;;;;;;2.50;1.23;;;;;;;;;;5348108;26;20040;-76
2024/04/20 04:43:32;;;;;;;2.90;0.87;;;;;;;;;;5363660;26;20025;-77
2024/04/20 04:46:11;;;;;;;4.53;1.10;;;;;;;;;;5376356;26;20020;-77
2024/04/20 04:48:39;;;;;;;1.77;1.00;;;;;;;;;;5338993;26;19998;-78
2024/04/20 04:57:56;;;;;;;;;;;;;;;;;;;;;
2024/04/20 05:06:15;;;;;;;3.60;0.83;;;;;;;;;;5283291;26;20009;-78
2024/04/20 05:08:43;;;;;;;2.00;0.60;;;;;;;;;;5336835;26;20008;-79
2024/04/20 05:11:09;;;;;;;3.17;0.90;;;;;;;;;;5341142;26;19993;-79
2024/04/20 05:13:43;;;;;;;0.53;0.50;;;;;;;;;;5379528;26;20005;-80
2024/04/20 05:16:14;;;;;;;1.17;0.77;;;;;;;;;;5377133;26;20000;-80
2024/04/20 05:18:42;;;;;;;2.80;1.40;;;;;;;;;;5342132;26;19997;-80
2024/04/20 05:21:14;;;;;;;2.90;0.90;;;;;;;;;;5361506;26;20002;-80
2024/04/20 05:23:48;;;;;;;4.33;0.80;;;;;;;;;;5366121;26;20037;-83
2024/04/20 05:26:23;;;;;;;3.30;0.53;;;;;;;;;;5346881;26;19985;-80
2024/04/20 05:29:07;;;;;;;1.03;0.50;;;;;;;;;;5376743;26;19992;-80
2024/04/20 05:31:37;;;;;;;4.20;0.67;;;;;;;;;;5342971;26;19993;-80
2024/04/20 05:34:05;;;;;;;0.80;0.50;;;;;;;;;;5379593;26;20016;-80
2024/04/20 05:36:56;;;;;;;1.30;0.47;;;;;;;;;;5375703;26;20010;-80
2024/04/20 05:39:22;;;;;;;1.90;0.80;;;;;;;;;;5366384;26;19993;-80
2024/04/20 05:41:58;;;;;;;1.53;0.60;;;;;;;;;;5343188;26;20006;-80
2024/04/20 05:44:27;;;;;;;1.10;0.83;;;;;;;;;;5370973;26;20006;-80
2024/04/20 05:46:55;;;;;;;1.83;1.00;;;;;;;;;;5350769;26;20000;-80
2024/04/20 05:49:29;;;;;;;4.63;1.07;;;;;;;;;;5347981;26;19993;-80
2024/04/20 05:51:55;;;;;;;1.57;0.70;;;;;;;;;;5369661;26;20040;-80
2024/04/20 05:54:21;;;;;;;1.87;0.50;;;;;;;;;;5349879;26;20001;-80
2024/04/20 05:56:55;;;;;;;2.57;0.70;;;;;;;;;;5366707;26;20005;-80
2024/04/20 05:59:23;;;;;;;0.53;0.43;;;;;;;;;;5375625;26;20000;-80
2024/04/20 06:04:49;;;;;;;1.00;0.77;;;;;;;;;;5326750;26;19993;-80
2024/04/20 06:07:18;;;;;;;7.17;1.10;;;;;;;;;;5369216;26;20008;-80
2024/04/20 06:09:52;;;;;;;2.20;1.10;;;;;;;;;;5364378;26;20094;-79
2024/04/20 06:12:21;;;;;;;3.37;1.30;;;;;;;;;;5374678;26;20002;-80
2024/04/20 06:15:12;;;;;;;2.10;1.30;;;;;;;;;;5347021;26;20010;-80
2024/04/20 06:17:38;;;;;;;1.43;1.00;;;;;;;;;;5294014;26;20014;-81
2024/04/20 06:20:09;;;;;;;5.70;2.20;;;;;;;;;;5343319;26;20006;-79
2024/04/20 06:22:45;;;;;;;5.87;1.50;;;;;;;;;;5358485;26;19993;-79
2024/04/20 06:25:39;;;;;;;2.53;1.20;;;;;;;;;;5457589;21;19994;31
2024/04/20 06:28:06;;;;;;;1.63;1.13;;;;;;;;;;5284904;27;20056;-79
2024/04/20 06:30:52;;;;;;;1.00;0.83;;;;;;;;;;5298642;26;20002;-79
2024/04/20 06:33:31;;;;;;;;;;;;;;;;;;;;;
2024/04/20 06:36:00;;;;;;;1.73;1.10;;;;;;;;;;5288414;26;19998;-79
2024/04/20 06:38:33;;;;;;;0.50;0.50;;;;;;;;;;5287367;26;19987;-80
2024/04/20 06:41:01;;;;;;;1.97;1.10;;;;;;;;;;5307879;26;19992;-80
2024/04/20 06:43:30;;;;;;;4.67;0.97;;;;;;;;;;5312752;26;19994;-79
2024/04/20 06:46:08;;;;;;;7.10;1.40;;;;;;;;;;5296326;26;20001;-79
2024/04/20 06:48:36;;;;;;;5.20;1.33;;;;;;;;;;5311281;26;20046;-80
2024/04/20 06:51:06;;;;;;;2.50;1.03;;;;;;;;;;5287287;26;20034;-79
2024/04/20 06:53:32;;;;;;;7.73;0.83;;;;;;;;;;5287894;26;19990;-79
2024/04/20 06:56:10;;;;;;;3.60;1.47;;;;;;;;;;5290727;26;19999;-79
2024/04/20 06:58:49;;;;;;;2.03;1.30;;;;;;;;;;5313134;26;20046;-79
2024/04/20 07:01:23;;;;;;;2.73;1.00;;;;;;;;;;5289642;26;20211;-79
2024/04/20 07:03:49;;;;;;;3.53;1.10;;;;;;;;;;5287922;26;19995;-79
2024/04/20 07:06:20;;;;;;;1.83;0.80;;;;;;;;;;5290102;26;20007;-79
2024/04/20 07:08:55;;;;;;;2.93;0.90;;;;;;;;;;5291169;26;19994;-80
2024/04/20 07:11:24;;;;;;;3.93;0.93;;;;;;;;;;5310311;26;19993;-79
2024/04/20 07:16:47;;;;;;;4.67;0.60;;;;;;;;;;5526536;21;20014;-81
2024/04/20 07:19:22;;;;;;;10.80;0.90;;;;;;;;;;5366800;26;19992;-80
2024/04/20 07:21:51;;;;;;;2.97;0.80;;;;;;;;;;5368730;26;19992;-79
2024/04/20 07:24:22;;;;;;;3.53;0.43;;;;;;;;;;5394597;26;20000;-79
2024/04/20 07:26:56;;;;;;;3.70;0.50;;;;;;;;;;5369009;26;19988;-80
2024/04/20 07:29:28;;;;;;;11.40;1.33;;;;;;;;;;5395471;26;20009;-80
2024/04/20 07:32:00;;;;;;;2.57;0.37;;;;;;;;;;5363084;26;20000;-80
2024/04/20 07:34:37;;;;;;;1.63;0.60;;;;;;;;;;5441687;21;20147;-80
2024/04/20 07:37:05;;;;;;;3.23;0.90;;;;;;;;;;5261998;26;21131;-80
2024/04/20 07:39:33;;;;;;;3.27;1.17;;;;;;;;;;5262680;26;19991;-79
2024/04/20 07:41:59;;;;;;;3.00;0.60;;;;;;;;;;5261153;26;20046;-79
2024/04/20 07:44:25;;;;;;;3.13;0.43;;;;;;;;;;5261488;26;20011;-79
2024/04/20 07:47:18;;;;;;;2.10;0.97;;;;;;;;;;5262014;26;20006;-79
2024/04/20 07:49:44;;;;;;;;;;;;;;;;;;5261066;26;19991;-80
2024/04/20 07:52:33;;;;;;;5.97;0.73;;;;;;;;;;5245066;26;19947;-79
2024/04/20 07:55:22;;;;;;;0.50;0.33;;;;;;;;;;5268835;26;20011;-80
2024/04/20 07:57:59;;;;;;;;;;;;;;;;;;;;;
2024/04/20 08:00:31;;;;;;;2.20;0.47;;;;;;;;;;5270066;26;20004;-80
2024/04/20 08:03:20;;;;;;;9.63;0.90;;;;;;;;;;5264221;26;20098;-80
2024/04/20 08:05:46;;;;;;;3.63;0.70;;;;;;;;;;5275410;26;20015;-80
2024/04/20 08:08:12;;;;;;;0.50;0.40;;;;;;;;;;5219280;26;20003;-80
2024/04/20 08:10:43;;;;;;;2.23;0.43;;;;;;;;;;5269176;26;20002;-80
2024/04/20 08:13:12;;;;;;;0.93;0.43;;;;;;;;;;5271641;26;20006;-80
2024/04/20 08:15:48;;;;;;;4.93;1.03;;;;;;;;;;5266144;26;20003;-80
2024/04/20 08:18:19;;;;;;;1.93;0.83;;;;;;;;;;5267755;26;20017;-82
2024/04/20 08:20:51;;;;;;;3.40;0.30;;;;;;;;;;5267783;26;20052;-79
2024/04/20 08:23:19;;;;;;;1.95;0.63;;;;;;;;;;5268231;26;19995;-80
2024/04/20 08:25:50;;;;;;;4.03;0.63;;;;;;;;;;5265837;26;19998;-80
2024/04/20 08:28:18;;;;;;;7.53;1.27;;;;;;;;;;5264403;26;19991;-79
2024/04/20 08:30:55;;;;;;;5.77;0.83;;;;;;;;;;5262809;26;19995;-79
2024/04/20 08:33:33;;;;;;;2.97;0.57;;;;;;;;;;5261562;26;20061;-79
2024/04/20 08:36:12;;;;;;;;;;;;;;;;;;;;;
2024/04/20 08:38:47;;;;;;;3.73;0.43;;;;;;;;;;5269833;26;20002;-79
2024/04/20 08:41:27;;;;;;;3.30;1.03;;;;;;;;;;5266376;26;20003;-79
2024/04/20 08:44:02;;;;;;;1.10;0.37;;;;;;;;;;5260214;26;19998;-79
2024/04/20 08:46:38;;;;;;;0.73;0.73;;;;;;;;;;5257234;26;20048;-79
2024/04/20 08:49:14;;;;;;;0.80;0.53;;;;;;;;;;5260011;26;20054;-79
2024/04/20 08:51:44;;;;;;;5.30;0.60;;;;;;;;;;5258866;26;20035;-79
2024/04/20 08:54:18;;;;;;;0.97;0.40;;;;;;;;;;5263059;26;19991;-79
2024/04/20 08:56:51;;;;;;;4.93;0.70;;;;;;;;;;5258450;26;20015;-79
2024/04/20 08:59:25;;;;;;;5.97;0.67;;;;;;;;;;5259043;26;20007;-79
2024/04/20 09:02:00;;;;;;;1.87;0.77;;;;;;;;;;5266059;26;19995;-78
2024/04/20 09:04:44;;;;;;;1.33;0.50;;;;;;;;;;5260533;26;20022;-78
2024/04/20 09:07:27;;;;;;;;;;;;;;;;;;;;;
2024/04/20 09:13:06;;;;;;;1.97;0.60;;;;;;;;;;5268514;26;20014;-79
2024/04/20 09:15:32;;;;;;;1.23;0.53;;;;;;;;;;5264166;26;20021;-80
2024/04/20 09:18:03;;;;;;;8.23;0.60;;;;;;;;;;5266813;26;19999;-80
2024/04/20 09:20:30;;;;;;;4.00;0.50;;;;;;;;;;5267399;26;20004;-80
2024/04/20 09:23:08;;;;;;;1.57;0.70;;;;;;;;;;5267919;26;19999;-80
2024/04/20 09:25:38;;;;;;;2.63;0.60;;;;;;;;;;5268965;26;20037;-80
2024/04/20 09:28:11;;;;;;;7.17;0.50;;;;;;;;;;5266253;26;20023;-80
2024/04/20 09:30:38;;;;;;;1.70;0.27;;;;;;;;;;5267120;26;20007;-80
2024/04/20 09:33:12;;;;;;;7.20;0.93;;;;;;;;;;5265394;26;20019;-80
2024/04/20 09:35:42;;;;;;;3.10;0.97;;;;;;;;;;5273879;26;19987;-80
2024/04/20 09:38:16;;;;;;;3.03;0.57;;;;;;;;;;5265211;26;19994;-80
2024/04/20 09:41:03;;;;;;;5.40;1.57;;;;;;;;;;5265682;26;20179;-80
2024/04/20 09:43:30;;;;;;;2.17;0.30;;;;;;;;;;5267958;26;19999;-80
2024/04/20 09:46:04;;;;;;;0.50;0.30;;;;;;;;;;5276213;26;20047;-80
2024/04/20 09:48:35;;;;;;;2.67;0.53;;;;;;;;;;5265415;26;20030;-80
2024/04/20 09:51:13;;;;;;;3.30;0.73;;;;;;;;;;5266351;26;20047;-80
2024/04/20 09:53:40;;;;;;;1.33;0.70;;;;;;;;;;5272380;26;19995;-80
2024/04/20 09:56:17;;;;;;;0.70;0.40;;;;;;;;;;5275728;26;19987;-80
2024/04/20 09:58:44;;;;;;;2.10;0.50;;;;;;;;;;5264889;26;20005;-80
2024/04/20 10:01:10;;;;;;;3.23;1.13;;;;;;;;;;5277315;26;19991;-79
2024/04/20 10:03:39;;;;;;;4.00;0.97;;;;;;;;;;5272525;26;19995;-80
2024/04/20 10:06:06;;;;;;;2.70;0.93;;;;;;;;;;5265883;26;19995;-80
2024/04/20 10:08:33;;;;;;;3.63;0.53;;;;;;;;;;5270543;26;19991;-80
2024/04/20 10:10:59;;;;;;;9.67;1.47;;;;;;;;;;5273761;26;20222;-80
2024/04/20 10:13:25;;;;;;;11.93;0.77;;;;;;;;;;5271129;26;19994;-79
2024/04/20 10:15:54;;;;;;;2.03;0.80;;;;;;;;;;5268583;26;20011;-79
2024/04/20 10:18:29;;;;;;;1.33;0.40;;;;;;;;;;5262709;26;20006;-80
2024/04/20 10:21:01;;;;;;;4.80;1.13;;;;;;;;;;5267787;26;19995;-79
2024/04/20 10:23:57;;;;;;;1.07;0.50;;;;;;;;;;5262059;26;20054;-79
2024/04/20 10:26:41;;;;;;;;;;;;;;;;;;;;;
2024/04/20 10:32:08;;;;;;;;;;;;;;;;;;;;;
2024/04/20 10:34:36;;;;;;;1.07;0.60;;;;;;;;;;5265418;26;19999;-78
2024/04/20 10:37:08;;;;;;;2.17;0.87;;;;;;;;;;5267818;26;19997;-79
2024/04/20 10:39:40;;;;;;;1.13;0.43;;;;;;;;;;5261506;26;19995;-80
2024/04/20 10:42:12;;;;;;;1.77;0.43;;;;;;;;;;5266046;26;20057;-80
2024/04/20 10:44:42;;;;;;;3.25;0.80;;;;;;;;;;5266434;26;20011;-80
2024/04/20 10:47:19;;;;;;;5.00;0.47;;;;;;;;;;5267910;26;19992;-80
2024/04/20 10:49:57;;;;;;;7.97;1.10;;;;;;;;;;5267538;26;19991;-80
2024/04/20 10:52:23;;;;;;;0.43;0.20;;;;;;;;;;5266312;26;20003;-80
2024/04/20 10:54:52;;;;;;;6.53;0.97;;;;;;;;;;5263489;26;20009;-81
2024/04/20 10:57:32;;;;;;;0.90;0.13;;;;;;;;;;5264074;26;19991;-80
2024/04/20 10:59:58;;;;;;;10.53;0.83;;;;;;;;;;5266056;26;19994;-80
2024/04/20 11:02:27;;;;;;;0.57;0.33;;;;;;;;;;5267283;26;20013;-80
2024/04/20 11:04:53;;;;;;;0.60;0.30;;;;;;;;;;5265035;26;19999;-80
2024/04/20 11:07:24;;;;;;;2.50;0.60;;;;;;;;;;5268419;26;19999;-80
2024/04/20 11:09:53;;;;;;;0.13;0.13;;;;;;;;;;5259494;26;19987;-79
2024/04/20 11:12:22;;;;;;;0.20;0.20;;;;;;;;;;5253563;26;20039;-80
2024/04/20 11:14:51;;;;;;;3.40;0.40;;;;;;;;;;5255749;26;20014;-80
2024/04/20 11:17:25;;;;;;;0.83;0.40;;;;;;;;;;5254266;26;19996;-81
2024/04/20 11:19:59;;;;;;;0.73;0.40;;;;;;;;;;5255330;26;19995;-79
2024/04/20 11:22:33;;;;;;;1.47;0.30;;;;;;;;;;5254298;26;20047;-80
2024/04/20 11:25:13;;;;;;;0.10;0.10;;;;;;;;;;5253226;26;20007;-79
2024/04/20 11:27:42;;;;;;;0.53;0.30;;;;;;;;;;5251946;26;19996;-79
2024/04/20 11:30:14;;;;;;;0.60;0.17;;;;;;;;;;5251838;26;20031;-79
2024/04/20 11:32:55;;;;;;;;;;;;;;;;;;;;;
2024/04/20 11:35:26;;;;;;;0.57;0.23;;;;;;;;;;5250832;26;20003;-79
2024/04/20 11:38:09;;;;;;;2.10;0.40;;;;;;;;;;5252892;26;20021;-78
2024/04/20 11:40:47;;;;;;;1.53;0.50;;;;;;;;;;5252586;26;19992;-78
2024/04/20 11:43:25;;;;;;;1.57;0.40;;;;;;;;;;5257467;26;19998;-78
2024/04/20 11:46:01;;;;;;;3.30;0.70;;;;;;;;;;5265412;26;19991;-79
2024/04/20 11:48:44;;;;;;;2.17;0.60;;;;;;;;;;5264277;26;20007;-78
2024/04/20 11:54:21;;;;;;;6.43;0.57;;;;;;;;;;5274617;26;20009;-79
2024/04/20 11:56:52;;;;;;;0.57;0.30;;;;;;;;;;5265996;26;19994;-80
2024/04/20 11:59:27;;;;;;;0.20;0.20;;;;;;;;;;5266644;26;19999;-79
2024/04/20 12:01:56;;;;;;;5.63;0.93;;;;;;;;;;5265870;26;19987;-79
2024/04/20 12:04:39;;;;;;;1.37;0.33;;;;;;;;;;5267334;26;19987;-80
2024/04/20 12:07:05;;;;;;;3.13;0.43;;;;;;;;;;5263196;26;20032;-80
2024/04/20 12:09:34;;;;;;;3.00;0.57;;;;;;;;;;5272254;26;19991;-80
2024/04/20 12:12:00;;;;;;;0.27;0.23;;;;;;;;;;5266894;26;19994;-79
2024/04/20 12:14:49;;;;;;;;;;;;;;;;;;;;;
2024/04/20 12:17:16;;;;;;;5.43;0.37;;;;;;;;;;5269681;26;19991;-79
2024/04/20 12:22:20;;;;;;;1.90;0.50;;;;;;;;;;5388044;21;20021;-79
2024/04/20 12:24:59;;;;;;;2.40;0.40;;;;;;;;;;5342909;26;20000;-79
2024/04/20 12:27:31;;;;;;;0.30;0.30;;;;;;;;;;5363080;26;20055;-79
2024/04/20 12:30:05;;;;;;;5.90;0.63;;;;;;;;;;5363297;26;20161;-79
2024/04/20 12:32:31;;;;;;;1.87;0.77;;;;;;;;;;5360098;26;20016;-83
2024/04/20 12:35:06;;;;;;;3.17;0.50;;;;;;;;;;5352086;26;20003;-80
2024/04/20 12:37:32;;;;;;;3.20;0.50;;;;;;;;;;5352425;26;20039;-79
2024/04/20 12:40:03;;;;;;;2.73;0.60;;;;;;;;;;5355825;26;20015;-79
2024/04/20 12:42:29;;;;;;;5.63;0.83;;;;;;;;;;5384722;26;19992;-79
2024/04/20 12:44:59;;;;;;;10.50;0.80;;;;;;;;;;5360900;26;20004;-79
2024/04/20 12:47:31;;;;;;;0.83;0.40;;;;;;;;;;5383161;26;19992;-78
2024/04/20 12:50:00;;;;;;;4.27;0.67;;;;;;;;;;5389061;26;19989;-79
2024/04/20 12:52:26;;;;;;;1.70;0.43;;;;;;;;;;5379956;26;20001;-80
2024/04/20 12:54:52;;;;;;;5.77;0.67;;;;;;;;;;5361305;26;20004;-78
2024/04/20 12:57:25;;;;;;;3.00;0.50;;;;;;;;;;5362854;26;19992;-80
2024/04/20 12:59:51;;;;;;;;;;;;;;;;;;5361017;26;20015;-79
2024/04/20 13:02:17;;;;;;;3.87;0.63;;;;;;;;;;5382888;26;19922;-80
2024/04/20 13:04:53;;;;;;;;;;;;;;;;;;;;;
2024/04/20 13:07:22;;;;;;;0.57;0.47;;;;;;;;;;5381074;26;19988;-79
2024/04/20 13:10:06;;;;;;;3.03;0.97;;;;;;;;;;5389448;26;19989;-79
2024/04/20 13:12:32;;;;;;;1.90;1.00;;;;;;;;;;5375059;26;20001;-79
2024/04/20 13:15:05;;;;;;;1.53;0.30;;;;;;;;;;5346737;26;19989;-79
2024/04/20 13:17:34;;;;;;;5.30;0.60;;;;;;;;;;5359598;26;20231;-79
2024/04/20 13:20:04;;;;;;;3.90;0.60;;;;;;;;;;5382118;26;19989;-79
2024/04/20 13:22:33;;;;;;;9.93;1.37;;;;;;;;;;5365932;26;20012;-79
2024/04/20 13:25:15;;;;;;;2.03;0.67;;;;;;;;;;5386729;26;20011;-79
2024/04/20 13:28:03;;;;;;;8.85;1.15;;;;;;;;;;5362104;26;20009;-79
2024/04/20 13:30:34;;;;;;;2.53;0.67;;;;;;;;;;5379719;26;19989;-79
2024/04/20 13:35:54;;;;;;;3.67;0.60;;;;;;;;;;5375623;26;20001;-79
2024/04/20 13:38:21;;;;;;;1.70;0.93;;;;;;;;;;5375782;26;19993;-78
2024/04/20 13:41:27;;;;;;;1.53;0.50;;;;;;;;;;5373149;26;20008;-78
2024/04/20 13:43:55;;;;;;;1.40;0.53;;;;;;;;;;5307066;26;19993;-78
2024/04/20 13:46:24;;;;;;;2.27;0.40;;;;;;;;;;5367288;26;19995;-78
2024/04/20 13:48:54;;;;;;;1.53;0.50;;;;;;;;;;5353110;26;20007;-78
2024/04/20 13:51:23;;;;;;;1.20;0.50;;;;;;;;;;5351119;26;19992;-78
2024/04/20 13:53:52;;;;;;;6.63;0.50;;;;;;;;;;5378231;26;19997;-77
2024/04/20 13:56:23;;;;;;;0.60;0.30;;;;;;;;;;5369543;26;20048;-78
2024/04/20 13:59:08;;;;;;;0.63;0.30;;;;;;;;;;5380751;26;20034;-77
2024/04/20 14:01:47;;;;;;;;;;;;;;;;;;;;;
2024/04/20 14:04:18;;;;;;;1.90;0.47;;;;;;;;;;5379574;26;20012;-77
2024/04/20 14:06:46;;;;;;;1.23;0.40;;;;;;;;;;5369260;26;20004;-77
2024/04/20 14:09:20;;;;;;;1.87;0.40;;;;;;;;;;5367676;26;20315;-77
2024/04/20 14:11:55;;;;;;;2.13;0.80;;;;;;;;;;5361759;26;19996;-77
2024/04/20 14:14:29;;;;;;;2.23;0.60;;;;;;;;;;5357586;26;20001;-77
2024/04/20 14:17:10;;;;;;;2.63;0.40;;;;;;;;;;5365535;26;20013;-76
2024/04/20 14:19:36;;;;;;;0.93;0.33;;;;;;;;;;5356644;26;20016;-77
2024/04/20 14:22:04;;;;;;;2.23;0.67;;;;;;;;;;5377808;26;20004;-77
2024/04/20 14:24:54;;;;;;;1.57;0.50;;;;;;;;;;5362509;26;19992;-76
2024/04/20 14:27:22;;;;;;;3.03;1.00;;;;;;;;;;5382384;26;19989;-76
2024/04/20 14:29:51;;;;;;;0.87;0.30;;;;;;;;;;5378255;26;20001;-77
2024/04/20 14:32:22;;;;;;;2.57;0.27;;;;;;;;;;5378656;26;20017;-76
2024/04/20 14:34:49;;;;;;;0.93;0.30;;;;;;;;;;5352754;26;20004;-76
2024/04/20 14:37:20;;;;;;;0.93;0.33;;;;;;;;;;5358535;26;20036;-77
2024/04/20 14:39:46;;;;;;;1.10;0.37;;;;;;;;;;5358139;26;19989;-76
2024/04/20 14:42:14;;;;;;;1.27;0.43;;;;;;;;;;5355770;26;20016;-76
2024/04/20 14:44:49;;;;;;;3.97;0.80;;;;;;;;;;5367057;26;20008;-76
2024/04/20 14:47:20;;;;;;;3.27;1.33;;;;;;;;;;5375524;26;19993;-76
2024/04/20 14:49:50;;;;;;;1.17;0.50;;;;;;;;;;5355178;26;19989;-76
2024/04/20 14:52:18;;;;;;;4.47;0.47;;;;;;;;;;5355317;26;19989;-76
2024/04/20 14:54:50;;;;;;;4.13;0.70;;;;;;;;;;5365063;26;19985;-76
2024/04/20 14:57:22;;;;;;;2.30;0.43;;;;;;;;;;5379682;26;20015;-78
2024/04/20 14:59:58;;;;;;;2.28;0.75;;;;;;;;;;5374383;26;20005;-76
2024/04/20 15:02:29;;;;;;;3.80;0.60;;;;;;;;;;5379408;26;20004;-76
2024/04/20 15:05:06;;;;;;;2.57;0.57;;;;;;;;;;5380074;26;19989;-77
2024/04/20 15:07:32;;;;;;;1.13;0.63;;;;;;;;;;5366582;26;20333;-76
2024/04/20 15:10:03;;;;;;;4.73;0.80;;;;;;;;;;5366894;26;19993;-76
2024/04/20 15:12:31;;;;;;;6.30;1.03;;;;;;;;;;5348530;26;19993;-76
2024/04/20 15:15:05;;;;;;;4.23;1.10;;;;;;;;;;5355450;26;19993;-76
2024/04/20 15:18:01;;;;;;;4.93;0.93;;;;;;;;;;5366367;26;20008;-76
2024/04/20 15:20:29;;;;;;;1.97;0.60;;;;;;;;;;5354891;26;19995;-76
2024/04/20 15:23:03;;;;;;;4.47;0.90;;;;;;;;;;5350775;26;19997;-76
2024/04/20 15:25:36;;;;;;;3.03;1.10;;;;;;;;;;5361302;26;19988;-76
2024/04/20 15:28:05;;;;;;;7.50;1.27;;;;;;;;;;5357625;26;20007;-76
2024/04/20 15:30:34;;;;;;;5.10;1.30;;;;;;;;;;5376490;26;20000;-76
2024/04/20 15:33:00;;;;;;;2.70;0.50;;;;;;;;;;5361165;26;20015;-75
2024/04/20 15:35:34;;;;;;;2.83;1.07;;;;;;;;;;5354824;26;19998;-76
2024/04/20 15:38:02;;;;;;;4.07;0.57;;;;;;;;;;5358088;26;20007;-76
2024/04/20 15:40:31;;;;;;;2.97;0.60;;;;;;;;;;5364074;26;19996;-76
2024/04/20 15:43:04;;;;;;;3.63;1.20;;;;;;;;;;5375748;26;20010;-76
2024/04/20 15:45:30;;;;;;;5.57;0.90;;;;;;;;;;5355512;26;20009;-76
2024/04/20 15:47:56;;;;;;;2.60;0.47;;;;;;;;;;5359468;26;20000;-76
2024/04/20 15:50:23;;;;;;;3.57;0.67;;;;;;;;;;5349013;26;19992;-76
2024/04/20 15:52:52;;;;;;;1.60;0.67;;;;;;;;;;5369792;26;19993;-76
2024/04/20 15:55:19;;;;;;;5.57;0.50;;;;;;;;;;5345898;26;20003;-76
2024/04/20 15:57:50;;;;;;;2.17;0.60;;;;;;;;;;5352384;26;20000;-76
2024/04/20 16:00:17;;;;;;;4.07;0.52;;;;;;;;;;5378350;26;20011;-76
2024/04/20 16:02:51;;;;;;;5.60;0.90;;;;;;;;;;5352494;26;20011;-77
2024/04/20 16:05:29;;;;;;;2.00;0.80;;;;;;;;;;5374479;26;19988;-76
2024/04/20 16:07:55;;;;;;;2.37;0.50;;;;;;;;;;5348963;26;19988;-77